createdAt,value
2018-03-22T00:01:43.340Z,4.07
2018-03-22T00:04:16.630Z,2.83
2018-03-22T00:06:49.887Z,4.27
2018-03-22T00:09:23.195Z,3.33
2018-03-22T00:11:57.214Z,3.63
2018-03-22T00:14:30.507Z,3.70
2018-03-22T01:48:06.731Z,3.33
2018-03-22T01:50:40.002Z,3.43
2018-03-22T01:53:14.983Z,4.43
2018-03-22T01:55:48.266Z,3.37
2018-03-22T01:58:21.526Z,3.63
2018-03-22T03:32:00.730Z,3.83
2018-03-22T03:34:34.002Z,2.80
2018-03-22T03:37:07.257Z,3.27
2018-03-22T03:39:40.537Z,3.57
2018-03-22T03:42:13.793Z,3.10
2018-03-22T03:44:47.074Z,4.63
2018-03-22T04:45:56.806Z,2.90
2018-03-22T04:48:30.067Z,2.87
2018-03-22T04:51:03.337Z,2.03
2018-03-22T04:53:36.589Z,2.23
2018-03-22T04:56:09.878Z,2.67
2018-03-22T04:58:43.161Z,3.17
2018-03-22T05:30:53.185Z,4.17
2018-03-22T05:33:27.250Z,3.73
2018-03-22T05:36:00.496Z,4.17
2018-03-22T05:38:33.794Z,2.87
2018-03-22T05:41:07.053Z,3.77
2018-03-22T05:43:40.335Z,3.40
2018-03-22T05:46:13.614Z,2.77
2018-03-22T05:48:46.868Z,2.30
2018-03-22T05:51:20.159Z,4.40
2018-03-22T05:53:53.434Z,3.57
2018-03-22T05:56:26.686Z,5.07
2018-03-22T05:58:59.974Z,3.57
2018-03-22T06:01:33.263Z,4.50
2018-03-22T06:04:06.522Z,4.33
2018-03-22T06:06:40.562Z,3.17
2018-03-22T06:09:13.811Z,3.60
2018-03-22T06:11:47.101Z,3.50
2018-03-22T06:14:20.374Z,3.40
2018-03-22T06:16:53.654Z,2.70
2018-03-22T06:19:26.912Z,2.40
2018-03-22T06:22:00.202Z,3.33
2018-03-22T06:24:33.457Z,3.57
2018-03-22T06:27:06.733Z,2.87
2018-03-22T06:29:39.991Z,3.93
2018-03-22T06:32:13.261Z,4.63
2018-03-22T06:34:47.324Z,2.90
2018-03-22T06:37:20.580Z,3.07
2018-03-22T06:39:54.618Z,2.50
2018-03-22T06:42:27.870Z,3.07
2018-03-22T06:45:01.162Z,2.67
2018-03-22T06:47:34.425Z,3.20
2018-03-22T06:50:07.806Z,2.30
2018-03-22T06:52:41.070Z,3.23
2018-03-22T06:55:14.375Z,2.63
2018-03-22T06:57:47.638Z,2.43
2018-03-22T07:00:20.932Z,2.60
2018-03-22T07:02:54.189Z,2.17
2018-03-22T07:05:27.469Z,2.80
2018-03-22T07:08:00.743Z,3.33
2018-03-22T07:10:34.790Z,2.63
2018-03-22T07:13:08.045Z,2.20
2018-03-22T07:15:41.345Z,2.10
2018-03-22T07:18:14.610Z,2.33
2018-03-22T07:20:47.912Z,3.13
2018-03-22T07:23:21.935Z,2.40
2018-03-22T07:25:56.030Z,2.60
2018-03-22T07:28:29.269Z,2.83
2018-03-22T08:03:29.889Z,3.37
2018-03-22T08:06:03.165Z,2.37
2018-03-22T08:08:36.415Z,3.17
2018-03-22T08:11:09.694Z,5.17
2018-03-22T08:13:42.967Z,2.30
2018-03-22T09:01:49.789Z,5.47
2018-03-22T09:04:23.051Z,3.43
2018-03-22T09:06:56.335Z,3.17
2018-03-22T09:09:29.590Z,7.27
2018-03-22T09:12:02.933Z,7.07
2018-03-22T09:14:36.109Z,6.80
2018-03-22T10:02:41.061Z,4.30
2018-03-22T10:05:14.319Z,3.30
2018-03-22T10:07:47.590Z,6.77
2018-03-22T10:10:20.843Z,4.53
2018-03-22T10:12:54.121Z,4.43
2018-03-22T11:04:08.266Z,3.90
2018-03-22T11:06:41.526Z,7.83
2018-03-22T11:09:14.779Z,6.70
2018-03-22T11:11:48.065Z,6.77
2018-03-22T11:14:21.318Z,4.93
2018-03-22T12:02:28.251Z,5.97
2018-03-22T12:05:01.502Z,5.43
2018-03-22T12:07:34.770Z,6.17
2018-03-22T12:10:08.025Z,3.13
2018-03-22T12:12:41.291Z,4.97
2018-03-22T13:00:53.689Z,2.63
2018-03-22T13:03:26.942Z,3.37
2018-03-22T13:06:00.218Z,3.53
2018-03-22T13:08:34.229Z,3.90
2018-03-22T13:11:08.273Z,3.97
2018-03-22T13:13:41.524Z,5.03
2018-03-22T14:01:47.843Z,3.93
2018-03-22T14:04:21.102Z,5.37
2018-03-22T14:06:54.425Z,4.23
2018-03-22T14:09:27.705Z,4.97
2018-03-22T14:12:00.952Z,4.97
2018-03-22T14:14:34.223Z,6.20
2018-03-22T15:02:40.554Z,4.80
2018-03-22T15:05:14.559Z,4.93
2018-03-22T15:07:48.593Z,6.13
2018-03-22T15:10:21.944Z,4.73
2018-03-22T15:12:55.879Z,4.13
2018-03-22T15:48:01.019Z,5.73
2018-03-22T15:50:34.254Z,6.23
2018-03-22T15:53:07.530Z,5.53
2018-03-22T15:55:41.543Z,5.47
2018-03-22T15:58:14.813Z,6.07
2018-03-22T16:33:19.310Z,6.80
2018-03-22T16:35:52.822Z,7.63
2018-03-22T16:38:26.088Z,7.80
2018-03-22T16:40:59.401Z,6.50
2018-03-22T16:43:32.654Z,7.47
2018-03-22T16:46:05.926Z,5.57
2018-03-22T16:48:39.182Z,7.03
2018-03-22T16:51:12.453Z,5.10
2018-03-22T16:53:45.690Z,6.53
2018-03-22T16:56:18.958Z,7.20
2018-03-22T16:58:52.209Z,9.10
2018-03-22T17:01:25.485Z,10.47
2018-03-22T17:03:58.730Z,7.10
2018-03-22T17:06:32.006Z,8.77
2018-03-22T17:09:05.287Z,7.87
2018-03-22T17:11:38.604Z,6.23
2018-03-22T17:14:11.849Z,7.00
2018-03-22T17:16:45.110Z,9.33
2018-03-22T17:19:18.388Z,8.57
2018-03-22T17:21:51.631Z,6.63
2018-03-22T17:24:24.899Z,9.50
2018-03-22T17:26:58.156Z,8.00
2018-03-22T17:29:31.435Z,11.70
2018-03-22T17:32:04.730Z,9.00
2018-03-22T17:34:38.013Z,8.37
2018-03-22T17:37:11.258Z,5.57
2018-03-22T17:39:44.531Z,4.97
2018-03-22T17:42:17.823Z,5.53
2018-03-22T17:44:51.861Z,7.33
2018-03-22T17:47:25.161Z,7.70
2018-03-22T17:49:58.444Z,5.30
2018-03-22T17:52:31.686Z,7.30
2018-03-22T17:55:04.940Z,4.23
2018-03-22T17:57:38.266Z,7.97
2018-03-22T18:00:11.463Z,7.47
2018-03-22T18:02:45.001Z,8.30
2018-03-22T18:05:18.409Z,6.47
2018-03-22T18:07:51.713Z,6.23
2018-03-22T18:10:24.960Z,8.23
2018-03-22T18:12:58.234Z,8.20
2018-03-22T18:15:31.513Z,6.13
2018-03-22T18:18:04.772Z,10.17
2018-03-22T18:20:38.826Z,6.53
2018-03-22T18:23:12.094Z,6.53
2018-03-22T18:25:45.370Z,6.57
2018-03-22T18:28:18.610Z,5.27
2018-03-22T18:30:51.898Z,7.83
2018-03-22T18:33:25.144Z,5.40
2018-03-22T18:35:59.175Z,5.97
2018-03-22T18:38:32.433Z,4.77
2018-03-22T18:41:05.730Z,4.83
2018-03-22T18:43:38.974Z,3.77
2018-03-22T18:46:12.285Z,4.97
2018-03-22T18:48:45.544Z,6.60
2018-03-22T18:51:19.578Z,6.00
2018-03-22T18:53:52.838Z,4.83
2018-03-22T18:56:26.887Z,6.00
2018-03-22T18:59:00.138Z,6.67
2018-03-22T19:01:34.317Z,5.37
2018-03-22T19:04:07.891Z,4.17
2018-03-22T19:06:41.375Z,5.97
2018-03-22T19:09:14.675Z,4.97
2018-03-22T19:11:48.056Z,3.63
2018-03-22T19:14:21.486Z,4.67
2018-03-22T19:16:54.890Z,3.63
2018-03-22T19:19:28.344Z,4.87
2018-03-22T19:22:01.732Z,4.53
2018-03-22T19:24:35.093Z,4.43
2018-03-22T19:27:08.479Z,5.53
2018-03-22T19:29:41.875Z,6.57
2018-03-22T19:32:15.255Z,6.07
2018-03-22T19:34:48.771Z,6.23
2018-03-22T19:37:22.192Z,5.07
2018-03-22T19:39:55.561Z,4.87
2018-03-22T19:42:29.627Z,6.10
2018-03-22T19:45:03.661Z,5.73
2018-03-22T19:47:36.949Z,4.50
2018-03-22T19:50:10.194Z,4.13
2018-03-22T19:52:43.468Z,4.47
2018-03-22T19:55:16.719Z,5.73
2018-03-22T19:57:50.778Z,8.77
2018-03-22T20:00:24.026Z,4.83
2018-03-22T20:02:57.446Z,6.37
2018-03-22T20:05:30.821Z,5.93
2018-03-22T20:08:04.992Z,5.10
2018-03-22T20:10:38.390Z,4.33
2018-03-22T20:13:11.676Z,4.73
2018-03-22T20:15:44.941Z,5.57
2018-03-22T20:18:18.220Z,9.03
2018-03-22T20:20:51.498Z,4.73
2018-03-22T20:23:25.520Z,7.60
2018-03-22T20:25:59.564Z,6.47
2018-03-22T20:28:32.821Z,5.50
2018-03-22T20:31:06.858Z,6.23
2018-03-22T20:33:40.136Z,4.77
2018-03-22T20:36:14.152Z,5.07
2018-03-22T20:38:47.425Z,8.80
2018-03-22T20:41:21.444Z,5.50
2018-03-22T20:43:55.499Z,7.20
2018-03-22T20:46:28.750Z,4.93
2018-03-22T20:49:02.034Z,4.57
2018-03-22T20:51:36.061Z,5.40
2018-03-22T20:54:10.103Z,6.73
2018-03-22T20:56:43.380Z,4.37
2018-03-22T20:59:16.671Z,5.37
2018-03-22T21:01:49.922Z,6.87
2018-03-22T21:04:23.213Z,6.23
2018-03-22T21:06:56.484Z,5.03
2018-03-22T21:09:29.772Z,6.97
2018-03-22T21:12:03.024Z,4.93
2018-03-22T21:14:37.092Z,6.03
2018-03-22T21:17:10.344Z,5.57
2018-03-22T21:19:43.632Z,5.77
2018-03-22T21:22:16.882Z,5.67
2018-03-22T21:24:50.157Z,8.33
2018-03-22T21:27:23.430Z,8.73
2018-03-22T21:29:56.686Z,7.00
2018-03-22T21:32:30.737Z,9.10
2018-03-22T21:35:04.055Z,6.40
2018-03-22T21:37:37.249Z,8.47
2018-03-22T21:40:10.534Z,10.03
2018-03-22T21:42:43.822Z,8.70
2018-03-22T21:45:17.088Z,7.57
2018-03-22T21:47:50.329Z,9.10
2018-03-22T21:50:23.600Z,7.03
2018-03-22T21:52:56.849Z,5.40
2018-03-22T21:55:30.900Z,5.93
2018-03-22T21:58:04.161Z,6.43
2018-03-22T22:00:37.430Z,8.70
2018-03-22T22:03:10.690Z,6.80
2018-03-22T22:05:43.967Z,4.73
2018-03-22T22:08:17.213Z,5.60
2018-03-22T22:10:50.491Z,6.57
2018-03-22T22:13:23.742Z,6.00
2018-03-22T22:15:57.033Z,5.40
2018-03-22T22:18:30.285Z,10.67
2018-03-22T22:21:03.590Z,6.03
2018-03-22T22:23:36.841Z,6.90
2018-03-22T22:26:10.122Z,7.03
2018-03-22T22:28:43.401Z,7.13
2018-03-22T22:31:16.657Z,8.10
2018-03-22T22:33:49.931Z,7.87
2018-03-22T22:36:23.189Z,6.07
2018-03-22T22:38:56.460Z,7.13
2018-03-22T22:41:29.731Z,8.90
2018-03-22T22:44:03.021Z,4.33
2018-03-22T22:46:36.279Z,9.03
2018-03-22T22:49:09.558Z,6.27
2018-03-22T22:51:42.806Z,7.83
2018-03-22T22:54:16.082Z,6.33
2018-03-22T22:56:49.341Z,11.67
2018-03-22T22:59:22.622Z,8.03
2018-03-22T23:01:55.870Z,8.57
2018-03-22T23:04:29.173Z,7.37
2018-03-22T23:07:02.421Z,8.73
2018-03-22T23:09:35.723Z,11.47
2018-03-22T23:12:08.969Z,9.27
2018-03-22T23:14:42.242Z,12.27
2018-03-22T23:17:15.502Z,8.17
2018-03-22T23:19:48.776Z,8.47
2018-03-22T23:22:22.049Z,6.77
2018-03-22T23:24:55.344Z,8.20
2018-03-22T23:27:28.617Z,9.07
2018-03-22T23:30:01.897Z,9.17
2018-03-22T23:32:35.155Z,7.50
2018-03-22T23:35:08.434Z,8.33
2018-03-22T23:37:41.694Z,12.13
2018-03-22T23:40:14.994Z,9.67
2018-03-22T23:42:48.261Z,9.87
2018-03-22T23:45:22.292Z,11.17
2018-03-22T23:47:55.574Z,12.40
2018-03-22T23:50:28.817Z,9.90
2018-03-22T23:53:02.089Z,10.37
2018-03-22T23:55:35.337Z,12.33
2018-03-22T23:58:08.606Z,9.50
